If you wish to contribute or participate in the discussions about articles you are invited to join SKYbrary as a registered user

 Actions

Izmir/Adnan Menderes Airport

From SKYbrary Wiki

LTBJ
Airport
ICAO: LTBJ – IATA: ADB
Summary
Name Izmir/Adnan Menderes Airport
Region Europe
Territory Turkey TR.gif
Location Izmir
Serving Izmir
Elevation 125.578 m
412 ft
412 ft125.578 m
Coordinates 38° 17' 36.93" N, 27° 9' 7.52" E
Runways
Designator Length Width Surface ROPS
16L/34R 3240 m10,629.921 ft
45 m147.638 ft
ASP yes/yes
16R/34L 3240 m10,629.921 ft
45 m147.638 ft
CON yes/yes


METAR
Observation LTBJ 211550Z 33012KT 300V010 CAVOK 15/00 Q1020 NOSIG
Station Izmir / Adnan Menderes
Date/Time 21 April 2019 15:50:00
Wind direction 330°
Wind speed 12 kts
Lowest cloud amount clouds and visibility OK
Temperature 15°C
Dew point 0°C
Humidity 35%
QNH 1020 hPa
Weather condition n/a